createdAt,value
2022-11-07T00:02:01.187Z,16.87
2022-11-07T00:07:05.819Z,15.17
2022-11-07T00:12:09.439Z,14.53
2022-11-07T00:17:12.828Z,15.27
2022-11-07T00:22:16.441Z,14.37
2022-11-07T00:27:19.893Z,16.23
2022-11-07T00:32:23.561Z,15.40
2022-11-07T00:37:27.165Z,14.43
2022-11-07T00:42:30.799Z,14.83
2022-11-07T00:47:34.107Z,14.60
2022-11-07T00:52:37.626Z,16.67
2022-11-07T00:57:41.150Z,16.53
2022-11-07T01:02:44.896Z,13.80
2022-11-07T01:07:48.362Z,15.17
2022-11-07T01:12:52.431Z,13.73
2022-11-07T01:17:55.891Z,17.93
2022-11-07T01:22:59.558Z,15.63
2022-11-07T01:28:02.948Z,16.60
2022-11-07T01:33:06.606Z,15.30
2022-11-07T01:38:10.360Z,16.53
2022-11-07T01:43:14.081Z,15.27
2022-11-07T01:48:17.477Z,16.60
2022-11-07T01:53:20.823Z,18.07
2022-11-07T01:58:24.282Z,18.63
2022-11-07T02:03:27.428Z,15.53
2022-11-07T02:08:33.028Z,16.30
2022-11-07T02:13:39.009Z,16.50
2022-11-07T02:18:45.236Z,16.73
2022-11-07T02:24:01.987Z,15.27
2022-11-07T02:29:09.691Z,15.37
2022-11-07T02:34:13.097Z,17.07
2022-11-07T02:39:16.624Z,17.37
2022-11-07T02:44:20.627Z,22.33
2022-11-07T02:49:24.087Z,23.90
2022-11-07T02:54:27.488Z,19.97
2022-11-07T02:59:31.117Z,17.70
2022-11-07T03:04:34.459Z,15.00
2022-11-07T03:09:37.886Z,15.57
2022-11-07T03:14:41.335Z,16.13
2022-11-07T03:19:44.772Z,15.10
2022-11-07T03:24:48.099Z,15.47
2022-11-07T03:29:51.547Z,15.63
2022-11-07T03:34:54.641Z,15.67
2022-11-07T03:39:57.959Z,16.10
2022-11-07T03:45:01.339Z,16.87
2022-11-07T03:50:05.479Z,16.97
2022-11-07T03:55:09.524Z,17.37
2022-11-07T04:00:14.034Z,17.43
2022-11-07T04:05:17.501Z,16.77
2022-11-07T04:10:20.858Z,15.70
2022-11-07T04:15:42.631Z,17.67
2022-11-07T04:20:46.159Z,16.23
2022-11-07T04:26:09.368Z,16.27
2022-11-07T04:31:12.651Z,17.77
2022-11-07T04:36:16.239Z,17.00
2022-11-07T04:41:22.128Z,17.10
2022-11-07T04:46:25.568Z,19.30
2022-11-07T04:51:28.938Z,29.93
2022-11-07T04:56:34.553Z,24.67
2022-11-07T05:01:38.232Z,20.30
2022-11-07T05:06:42.485Z,21.77
2022-11-07T05:11:47.385Z,22.73
2022-11-07T05:16:51.859Z,22.03
2022-11-07T05:22:13.811Z,20.03
2022-11-07T05:27:21.560Z,18.93
2022-11-07T05:32:25.040Z,20.10
2022-11-07T05:37:28.467Z,19.57
2022-11-07T05:42:31.953Z,19.70
2022-11-07T05:47:35.333Z,19.57
2022-11-07T05:52:38.990Z,19.50
2022-11-07T05:57:42.176Z,19.17
2022-11-07T06:02:46.738Z,20.40
2022-11-07T06:07:50.235Z,21.20
2022-11-07T06:13:01.527Z,20.03
2022-11-07T06:18:07.830Z,23.30
2022-11-07T06:23:12.627Z,21.07
2022-11-07T06:28:16.245Z,20.60
2022-11-07T06:33:20.672Z,19.67
2022-11-07T06:38:25.475Z,20.93
2022-11-07T06:43:32.801Z,21.20
2022-11-07T06:48:37.005Z,23.67
2022-11-07T06:53:40.165Z,24.27
2022-11-07T06:58:43.866Z,23.40
2022-11-07T07:03:47.455Z,24.63
2022-11-07T07:08:51.338Z,24.80
2022-11-07T07:14:01.940Z,23.93
2022-11-07T07:19:06.137Z,23.47
2022-11-07T07:24:09.696Z,23.27
2022-11-07T07:29:13.030Z,24.23
2022-11-07T07:34:16.516Z,25.60
2022-11-07T07:39:19.659Z,25.63
2022-11-07T07:44:22.994Z,25.83
2022-11-07T07:49:26.434Z,27.93
2022-11-07T07:54:29.507Z,28.57
2022-11-07T07:59:33.285Z,26.27
2022-11-07T08:04:37.007Z,27.60
2022-11-07T08:09:40.500Z,28.27
2022-11-07T08:14:43.616Z,28.43
2022-11-07T08:19:47.507Z,27.80
2022-11-07T08:24:50.899Z,28.50
2022-11-07T08:29:55.393Z,27.50
2022-11-07T08:34:58.807Z,28.67
2022-11-07T08:40:02.204Z,25.13
2022-11-07T08:45:05.857Z,26.73
2022-11-07T08:50:09.185Z,27.87
2022-11-07T08:55:12.734Z,27.23
2022-11-07T09:00:16.253Z,24.63
2022-11-07T09:05:20.064Z,25.03
2022-11-07T09:10:24.049Z,25.37
2022-11-07T09:15:27.538Z,23.17
2022-11-07T09:20:30.882Z,25.97
2022-11-07T09:25:37.358Z,22.80
2022-11-07T09:30:40.680Z,22.20
2022-11-07T09:35:43.717Z,24.30
2022-11-07T09:41:17.899Z,22.17
2022-11-07T09:46:36.251Z,21.77
2022-11-07T09:51:44.675Z,24.70
2022-11-07T09:56:47.906Z,21.67
2022-11-07T10:01:51.576Z,22.30
2022-11-07T10:07:26.418Z,21.77
2022-11-07T10:12:51.455Z,20.07
2022-11-07T10:18:06.390Z,18.10
2022-11-07T10:23:28.407Z,16.77
2022-11-07T10:28:32.757Z,14.80
2022-11-07T10:34:02.265Z,13.57
2022-11-07T10:39:16.647Z,13.53
2022-11-07T10:44:28.061Z,11.97
2022-11-07T10:49:33.564Z,11.77
2022-11-07T10:54:37.186Z,11.80
2022-11-07T10:59:45.502Z,12.17
2022-11-07T11:04:54.744Z,11.37
2022-11-07T11:09:59.334Z,10.50
2022-11-07T11:15:12.786Z,10.97
2022-11-07T11:20:34.167Z,10.97
2022-11-07T11:25:46.769Z,10.00
2022-11-07T11:31:19.037Z,9.80
2022-11-07T11:36:35.847Z,10.67
2022-11-07T11:41:57.406Z,9.80
2022-11-07T11:47:05.958Z,9.60
2022-11-07T11:52:30.338Z,8.50
2022-11-07T11:57:42.107Z,9.57
2022-11-07T12:03:09.917Z,9.27
2022-11-07T12:08:54.302Z,8.40
2022-11-07T12:14:31.058Z,8.60
2022-11-07T12:19:59.425Z,7.77
2022-11-07T12:25:08.566Z,6.43
2022-11-07T12:30:33.501Z,7.93
2022-11-07T12:36:10.981Z,7.67
2022-11-07T12:41:35.145Z,7.23
2022-11-07T12:46:54.807Z,7.50
2022-11-07T12:52:35.566Z,7.90
2022-11-07T12:57:40.094Z,7.17
2022-11-07T13:03:20.686Z,6.87
2022-11-07T13:08:46.521Z,6.90
2022-11-07T13:14:40.428Z,6.70
2022-11-07T13:20:04.827Z,7.73
2022-11-07T13:25:17.606Z,7.70
2022-11-07T13:30:23.163Z,6.97
2022-11-07T13:35:38.867Z,6.50
2022-11-07T13:40:42.158Z,6.50
2022-11-07T13:46:04.065Z,6.10
2022-11-07T13:51:17.978Z,6.57
2022-11-07T13:56:42.444Z,7.60
2022-11-07T14:01:46.663Z,7.13
2022-11-07T14:06:51.787Z,6.73
2022-11-07T14:11:55.325Z,6.87
2022-11-07T14:17:00.763Z,6.83
2022-11-07T14:22:04.273Z,9.17
2022-11-07T14:27:14.553Z,6.40
2022-11-07T14:32:18.656Z,7.40
2022-11-07T14:37:25.930Z,8.07
2022-11-07T14:42:30.098Z,9.27
2022-11-07T14:47:35.301Z,8.93
2022-11-07T14:53:09.936Z,7.57
2022-11-07T14:58:14.170Z,7.93
2022-11-07T15:03:22.599Z,10.73
2022-11-07T15:08:38.176Z,9.23
2022-11-07T15:13:42.639Z,9.33
2022-11-07T15:18:48.083Z,8.27
2022-11-07T15:23:54.457Z,8.27
2022-11-07T15:29:15.750Z,11.40
2022-11-07T15:34:33.789Z,13.20
2022-11-07T15:39:43.538Z,11.43
2022-11-07T15:44:46.886Z,9.37
2022-11-07T15:49:50.394Z,10.10
2022-11-07T15:54:53.661Z,9.40
2022-11-07T15:59:57.062Z,10.37
2022-11-07T16:05:00.685Z,9.93
2022-11-07T16:10:16.596Z,9.97
2022-11-07T16:15:23.630Z,10.40
2022-11-07T16:20:26.915Z,10.57
2022-11-07T16:25:31.664Z,9.93
2022-11-07T16:30:34.878Z,9.23
2022-11-07T16:35:38.806Z,10.50
2022-11-07T16:40:43.156Z,9.63
2022-11-07T16:45:58.687Z,9.40
2022-11-07T16:51:03.987Z,11.47
2022-11-07T16:56:10.049Z,13.73
2022-11-07T17:01:15.443Z,14.63
2022-11-07T17:06:31.606Z,14.73
2022-11-07T17:11:35.430Z,12.87
2022-11-07T17:16:41.058Z,13.40
2022-11-07T17:21:49.227Z,11.57
2022-11-07T17:26:53.516Z,12.90
2022-11-07T17:32:00.167Z,11.80
2022-11-07T17:37:05.937Z,12.53
2022-11-07T17:42:09.928Z,13.17
2022-11-07T17:47:31.573Z,13.47
2022-11-07T17:52:37.407Z,15.23
2022-11-07T17:57:44.008Z,17.87
2022-11-07T18:02:53.339Z,26.50
2022-11-07T18:07:57.405Z,29.83
2022-11-07T18:13:01.440Z,26.03
2022-11-07T18:18:10.755Z,20.17
2022-11-07T18:23:15.758Z,18.43
2022-11-07T18:28:21.491Z,16.73
2022-11-07T18:33:27.889Z,16.27
2022-11-07T18:38:34.050Z,15.57
2022-11-07T18:43:41.463Z,16.50
2022-11-07T18:48:47.378Z,19.00
2022-11-07T18:53:53.826Z,19.83
2022-11-07T18:58:58.767Z,20.20
2022-11-07T19:04:06.609Z,18.70
2022-11-07T19:09:12.996Z,18.87
2022-11-07T19:14:18.506Z,18.17
2022-11-07T19:19:26.156Z,17.67
2022-11-07T19:24:30.946Z,15.53
2022-11-07T19:29:35.622Z,17.67
2022-11-07T19:34:41.833Z,16.00
2022-11-07T19:39:47.255Z,16.30
2022-11-07T19:44:56.498Z,18.80
2022-11-07T19:50:01.997Z,17.97
2022-11-07T19:55:07.097Z,17.23
2022-11-07T20:00:13.389Z,17.57
2022-11-07T20:05:25.071Z,21.17
2022-11-07T20:10:30.375Z,22.73
2022-11-07T20:15:35.182Z,21.40
2022-11-07T20:20:41.126Z,20.20
2022-11-07T20:25:45.297Z,20.80
2022-11-07T20:30:54.937Z,20.17
2022-11-07T20:36:04.830Z,18.33
2022-11-07T20:41:09.426Z,18.03
2022-11-07T20:46:16.625Z,18.93
2022-11-07T20:51:25.478Z,19.60
2022-11-07T20:56:31.736Z,19.67
2022-11-07T21:01:37.671Z,19.20
2022-11-07T21:06:42.495Z,18.13
2022-11-07T21:11:46.354Z,16.83
2022-11-07T21:16:49.922Z,16.77
2022-11-07T21:21:53.727Z,15.30
2022-11-07T21:26:58.538Z,16.43
2022-11-07T21:32:02.970Z,17.07
2022-11-07T21:37:10.019Z,17.50
2022-11-07T21:42:16.156Z,16.50
2022-11-07T21:47:19.589Z,16.03
2022-11-07T21:52:23.195Z,15.50
2022-11-07T21:57:26.887Z,14.73
2022-11-07T22:02:30.896Z,15.37
2022-11-07T22:07:37.299Z,14.10
2022-11-07T22:12:40.667Z,19.27
2022-11-07T22:17:44.045Z,19.87
2022-11-07T22:22:47.099Z,20.47
2022-11-07T22:27:51.779Z,15.97
2022-11-07T22:32:54.752Z,16.27
2022-11-07T22:37:58.329Z,15.67
2022-11-07T22:43:01.667Z,13.73
2022-11-07T22:48:05.374Z,11.30
2022-11-07T22:53:08.749Z,11.50
2022-11-07T22:58:12.165Z,11.17
2022-11-07T23:03:15.263Z,10.83
2022-11-07T23:08:19.116Z,10.33
2022-11-07T23:13:22.884Z,10.53
2022-11-07T23:18:26.258Z,10.23
2022-11-07T23:23:29.731Z,9.90
2022-11-07T23:28:33.197Z,12.10
2022-11-07T23:33:37.847Z,10.13
2022-11-07T23:38:42.601Z,11.27
2022-11-07T23:43:49.872Z,12.63
2022-11-07T23:49:14.936Z,13.83
2022-11-07T23:54:36.957Z,13.43
2022-11-07T23:59:59.211Z,13.67
